createdAt,value
2019-05-12T00:01:51.565Z,15.05
2019-05-12T00:04:23.297Z,14.72
2019-05-12T00:06:55.033Z,15.46
2019-05-12T00:09:28.289Z,16.78
2019-05-12T00:12:00.084Z,16.81
2019-05-12T00:14:31.921Z,16.21
2019-05-12T00:17:03.647Z,15.73
2019-05-12T00:19:37.656Z,15.37
2019-05-12T00:22:11.279Z,15.03
2019-05-12T00:24:47.767Z,14.66
2019-05-12T00:27:23.258Z,15.46
2019-05-12T00:29:54.994Z,16.95
2019-05-12T00:32:28.224Z,17.04
2019-05-12T00:35:00.045Z,16.39
2019-05-12T00:37:31.873Z,15.78
2019-05-12T00:40:04.096Z,15.32
2019-05-12T00:42:38.054Z,14.91
2019-05-12T00:45:09.798Z,14.53
2019-05-12T00:47:41.629Z,15.30
2019-05-12T00:50:13.756Z,16.64
2019-05-12T00:52:45.514Z,16.20
2019-05-12T00:55:18.396Z,15.60
2019-05-12T00:57:50.251Z,15.14
2019-05-12T01:00:22.940Z,14.73
2019-05-12T01:02:54.669Z,14.38
2019-05-12T01:05:26.399Z,14.28
2019-05-12T01:07:58.539Z,15.76
2019-05-12T01:10:31.437Z,16.39
2019-05-12T01:13:04.764Z,15.62
2019-05-12T01:15:37.786Z,14.97
2019-05-12T01:18:09.914Z,14.43
2019-05-12T01:20:41.854Z,14.01
2019-05-12T01:23:14.823Z,14.43
2019-05-12T01:25:50.598Z,16.03
2019-05-12T01:28:22.458Z,15.91
2019-05-12T01:30:58.063Z,15.27
2019-05-12T01:33:29.250Z,14.66
2019-05-12T01:36:02.225Z,14.24
2019-05-12T01:38:34.040Z,14.91
2019-05-12T01:41:05.767Z,16.42
2019-05-12T01:43:38.230Z,16.28
2019-05-12T01:46:11.231Z,15.50
2019-05-12T01:48:42.872Z,14.87
2019-05-12T01:51:17.879Z,14.27
2019-05-12T01:53:49.772Z,13.73
2019-05-12T01:56:21.494Z,13.25
2019-05-12T01:58:53.324Z,12.83
2019-05-12T02:01:25.043Z,13.48
2019-05-12T02:03:58.545Z,14.73
2019-05-12T02:06:30.102Z,14.55
2019-05-12T02:09:03.471Z,13.89
2019-05-12T02:11:35.153Z,13.25
2019-05-12T02:14:09.242Z,12.75
2019-05-12T02:16:40.837Z,12.34
2019-05-12T02:19:12.577Z,12.97
2019-05-12T02:21:44.299Z,14.48
2019-05-12T02:24:24.272Z,14.43
2019-05-12T02:26:49.442Z,13.68
2019-05-12T02:29:21.162Z,13.18
2019-05-12T02:31:52.891Z,12.68
2019-05-12T02:34:25.580Z,12.27
2019-05-12T02:36:57.310Z,12.55
2019-05-12T02:39:29.147Z,14.13
2019-05-12T02:42:00.869Z,14.66
2019-05-12T02:44:34.652Z,14.00
2019-05-12T02:47:06.132Z,13.30
2019-05-12T02:49:37.814Z,12.80
2019-05-12T02:52:10.000Z,12.34
2019-05-12T02:54:51.895Z,11.89
2019-05-12T02:57:17.451Z,12.71
2019-05-12T02:59:50.220Z,14.14
2019-05-12T03:02:24.706Z,14.86
2019-05-12T03:04:59.555Z,14.18
2019-05-12T03:07:34.577Z,13.45
2019-05-12T03:10:14.618Z,12.93
2019-05-12T03:12:46.510Z,12.40
2019-05-12T03:15:18.352Z,11.96
2019-05-12T03:17:50.079Z,12.55
2019-05-12T03:20:24.221Z,14.23
2019-05-12T03:22:55.529Z,14.96
2019-05-12T03:25:30.127Z,14.24
2019-05-12T03:28:00.745Z,13.66
2019-05-12T03:30:38.191Z,13.00
2019-05-12T03:33:09.138Z,12.48
2019-05-12T03:35:43.469Z,12.06
2019-05-12T03:38:15.001Z,12.34
2019-05-12T03:40:47.010Z,13.76
2019-05-12T03:43:18.750Z,13.86
2019-05-12T03:45:50.489Z,13.17
2019-05-12T03:48:25.077Z,12.49
2019-05-12T03:50:55.562Z,12.04
2019-05-12T03:53:27.298Z,12.68
2019-05-12T03:55:59.029Z,13.94
2019-05-12T03:58:30.850Z,13.89
2019-05-12T04:01:04.597Z,13.11
2019-05-12T04:03:35.895Z,12.49
2019-05-12T04:06:07.626Z,11.99
2019-05-12T04:08:39.915Z,13.04
2019-05-12T04:11:14.497Z,14.13
2019-05-12T04:13:45.454Z,13.82
2019-05-12T04:16:19.990Z,13.08
2019-05-12T04:18:54.927Z,12.45
2019-05-12T04:21:25.041Z,12.03
2019-05-12T04:23:56.682Z,12.66
2019-05-12T04:26:30.049Z,13.92
2019-05-12T04:29:04.839Z,14.51
2019-05-12T04:31:37.170Z,13.85
2019-05-12T04:34:10.075Z,13.16
2019-05-12T04:36:44.873Z,12.62
2019-05-12T04:39:15.585Z,12.19
2019-05-12T04:41:48.163Z,12.95
2019-05-12T04:44:20.005Z,14.20
2019-05-12T04:46:55.151Z,14.48
2019-05-12T04:49:25.346Z,13.78
2019-05-12T04:51:57.979Z,13.17
2019-05-12T04:54:30.726Z,12.63
2019-05-12T04:57:04.149Z,12.20
2019-05-12T04:59:35.799Z,13.13
2019-05-12T05:02:07.513Z,14.29
2019-05-12T05:04:39.251Z,14.03
2019-05-12T05:07:10.984Z,13.28
2019-05-12T05:09:44.290Z,12.63
2019-05-12T05:12:16.325Z,12.16
2019-05-12T05:14:48.163Z,12.87
2019-05-12T05:17:24.574Z,14.15
2019-05-12T05:19:58.031Z,14.66
2019-05-12T05:22:29.852Z,13.94
2019-05-12T05:25:04.113Z,13.17
2019-05-12T05:27:34.925Z,12.63
2019-05-12T05:30:10.933Z,12.35
2019-05-12T05:32:44.488Z,13.63
2019-05-12T05:35:15.994Z,14.00
2019-05-12T05:37:47.832Z,13.25
2019-05-12T05:40:19.930Z,12.58
2019-05-12T05:42:54.309Z,12.33
2019-05-12T05:45:26.593Z,13.48
2019-05-12T05:47:59.549Z,14.66
2019-05-12T05:50:33.870Z,14.11
2019-05-12T05:53:12.429Z,13.39
2019-05-12T05:55:39.031Z,12.83
2019-05-12T05:58:10.759Z,12.62
2019-05-12T06:00:43.614Z,13.69
2019-05-12T06:03:22.909Z,14.80
2019-05-12T06:05:48.781Z,14.56
2019-05-12T06:33:31.319Z,11.11
2019-05-12T06:35:59.794Z,12.49
2019-05-12T12:59:56.238Z,13.66
2019-05-12T13:02:28.231Z,15.30
2019-05-12T13:04:59.791Z,16.52
2019-05-12T13:07:33.436Z,17.73
2019-05-12T13:10:09.508Z,18.59
2019-05-12T13:12:40.381Z,18.30
2019-05-12T13:15:14.588Z,17.54
2019-05-12T13:17:51.019Z,17.00
2019-05-12T13:20:23.851Z,16.39
2019-05-12T13:22:58.059Z,15.91
2019-05-12T13:25:29.934Z,15.43
2019-05-12T13:28:10.068Z,15.03
2019-05-12T13:30:45.545Z,14.51
2019-05-12T13:33:14.844Z,14.08
2019-05-12T13:35:50.326Z,13.73
2019-05-12T13:38:19.228Z,14.25
2019-05-12T13:40:51.078Z,15.55
2019-05-12T13:43:23.715Z,16.59
2019-05-12T13:45:55.767Z,16.08
2019-05-12T13:48:29.086Z,15.52
2019-05-12T13:51:12.132Z,15.04
2019-05-12T13:53:40.503Z,14.66
2019-05-12T13:56:13.699Z,14.38
2019-05-12T13:58:47.260Z,14.07
2019-05-12T14:01:21.049Z,13.80
2019-05-12T14:03:53.571Z,13.61
2019-05-12T14:06:31.842Z,13.46
2019-05-12T14:09:01.112Z,14.36
2019-05-12T14:11:34.599Z,15.80
2019-05-12T14:14:11.523Z,16.38
2019-05-12T14:16:44.536Z,16.05
2019-05-12T14:19:17.750Z,15.76
2019-05-12T14:21:54.137Z,15.45
2019-05-12T14:24:26.323Z,15.24
2019-05-12T14:26:58.008Z,15.04
2019-05-12T14:29:30.749Z,14.88
2019-05-12T14:32:05.319Z,14.72
2019-05-12T14:34:36.545Z,14.62
2019-05-12T14:37:13.621Z,14.51
2019-05-12T14:39:50.130Z,14.34
2019-05-12T14:42:19.518Z,14.23
2019-05-12T14:44:54.083Z,14.07
2019-05-12T14:47:30.093Z,13.94
2019-05-12T14:50:03.783Z,13.89
2019-05-12T14:52:34.547Z,13.78
2019-05-12T14:55:08.710Z,13.73
2019-05-12T14:57:42.175Z,13.73
2019-05-12T15:00:21.890Z,13.72
2019-05-12T15:02:54.047Z,14.84
2019-05-12T15:05:27.707Z,16.46
2019-05-12T15:08:00.889Z,16.78
2019-05-12T15:10:36.372Z,16.45
2019-05-12T15:13:09.940Z,16.24
2019-05-12T15:15:43.941Z,16.05
2019-05-12T15:18:16.780Z,15.90
2019-05-12T15:20:51.355Z,15.74
2019-05-12T15:23:32.652Z,15.58
2019-05-12T15:25:58.063Z,15.38
2019-05-12T15:28:33.800Z,15.21
2019-05-12T15:31:05.872Z,15.08
2019-05-12T15:33:37.618Z,14.91
2019-05-12T15:36:09.758Z,14.73
2019-05-12T15:38:43.734Z,14.58
2019-05-12T15:41:20.061Z,14.39
2019-05-12T15:43:53.662Z,14.25
2019-05-12T15:46:26.517Z,14.13
2019-05-12T15:48:58.381Z,13.97
2019-05-12T15:51:30.336Z,13.89
2019-05-12T15:54:06.247Z,13.79
2019-05-12T15:56:35.468Z,13.72
2019-05-12T15:59:09.924Z,13.62
2019-05-12T16:01:43.809Z,13.53
2019-05-12T16:04:15.462Z,13.45
2019-05-12T16:06:53.176Z,13.48
2019-05-12T16:09:23.792Z,14.72
2019-05-12T16:11:55.273Z,16.12
2019-05-12T16:14:33.937Z,16.53
2019-05-12T16:17:06.296Z,16.10
2019-05-12T16:19:37.242Z,15.74
2019-05-12T16:22:08.990Z,15.46
2019-05-12T16:24:43.525Z,15.19
2019-05-12T16:27:14.570Z,14.94
2019-05-12T16:29:49.934Z,14.72
2019-05-12T16:32:27.266Z,14.48
2019-05-12T16:34:57.657Z,14.27
2019-05-12T16:37:31.099Z,14.04
2019-05-12T16:40:04.470Z,13.87
2019-05-12T16:42:40.800Z,13.70
2019-05-12T16:45:10.703Z,13.53
2019-05-12T16:47:44.724Z,13.41
2019-05-12T16:50:24.475Z,13.25
2019-05-12T16:52:49.965Z,13.11
2019-05-12T16:55:23.647Z,12.97
2019-05-12T16:57:56.264Z,12.86
2019-05-12T17:00:34.022Z,13.76
2019-05-12T17:03:09.003Z,15.41
2019-05-12T17:05:43.962Z,17.10
2019-05-12T17:08:16.721Z,17.30
2019-05-12T17:11:01.059Z,16.64
2019-05-12T17:13:34.019Z,16.10
2019-05-12T17:16:13.875Z,15.67
2019-05-12T17:18:48.387Z,15.27
2019-05-12T17:21:24.621Z,14.91
2019-05-12T17:23:57.459Z,14.56
2019-05-12T17:26:29.488Z,14.24
2019-05-12T17:29:10.987Z,13.93
2019-05-12T17:31:45.782Z,13.63
2019-05-12T17:34:19.223Z,13.37
2019-05-12T17:36:58.511Z,13.11
2019-05-12T17:39:29.309Z,12.84
2019-05-12T17:42:03.481Z,13.66
2019-05-12T17:44:38.894Z,15.41
2019-05-12T17:47:20.730Z,17.07
2019-05-12T17:49:45.755Z,17.22
2019-05-12T17:52:19.441Z,16.52
2019-05-12T17:54:57.850Z,15.93
2019-05-12T17:57:27.703Z,15.42
2019-05-12T18:00:08.551Z,14.98
2019-05-12T18:02:43.637Z,14.58
2019-05-12T18:05:16.033Z,14.13
2019-05-12T18:07:50.854Z,13.76
2019-05-12T18:10:23.863Z,14.60
2019-05-12T18:13:00.411Z,16.35
2019-05-12T18:15:37.832Z,17.82
2019-05-12T18:18:08.577Z,17.80
2019-05-12T18:20:43.942Z,16.98
2019-05-12T18:23:14.235Z,16.27
2019-05-12T18:25:48.224Z,15.70
2019-05-12T18:28:21.644Z,15.19
2019-05-12T18:30:55.887Z,14.70
2019-05-12T18:33:33.269Z,14.24
2019-05-12T18:36:01.064Z,13.80
2019-05-12T18:38:38.752Z,13.41
2019-05-12T18:41:06.975Z,14.24
2019-05-12T18:43:40.169Z,15.91
2019-05-12T18:46:13.995Z,17.39
2019-05-12T18:48:56.669Z,17.32
2019-05-12T18:51:26.446Z,16.45
2019-05-12T18:54:03.657Z,15.73
2019-05-12T18:56:36.718Z,15.10
2019-05-12T18:59:11.763Z,14.60
2019-05-12T19:01:44.750Z,14.08
2019-05-12T19:04:16.400Z,13.61
2019-05-12T19:06:49.009Z,13.17
2019-05-12T19:09:23.784Z,13.98
2019-05-12T19:11:58.322Z,15.63
2019-05-12T19:14:38.654Z,17.10
2019-05-12T19:17:07.401Z,17.02
2019-05-12T19:19:40.546Z,16.20
2019-05-12T19:22:14.142Z,15.48
2019-05-12T19:24:50.080Z,14.84
2019-05-12T19:27:24.080Z,14.31
2019-05-12T19:29:56.845Z,13.78
2019-05-12T19:32:29.451Z,13.31
2019-05-12T19:35:03.708Z,12.87
2019-05-12T19:37:36.398Z,13.80
2019-05-12T19:40:11.883Z,15.60
2019-05-12T19:42:46.328Z,17.10
2019-05-12T19:45:21.605Z,17.01
2019-05-12T19:47:53.609Z,16.10
2019-05-12T19:50:25.143Z,15.37
2019-05-12T19:52:56.894Z,14.75
2019-05-12T19:55:29.447Z,14.21
2019-05-12T19:58:10.957Z,13.69
2019-05-12T20:00:39.842Z,13.23
2019-05-12T20:03:13.677Z,12.78
2019-05-12T20:05:44.902Z,13.65
2019-05-12T20:08:16.867Z,15.37
2019-05-12T20:10:49.759Z,16.76
2019-05-12T20:13:23.915Z,16.67
2019-05-12T20:16:02.012Z,15.81
2019-05-12T20:18:49.147Z,15.11
2019-05-12T20:21:20.409Z,14.48
2019-05-12T20:24:03.861Z,13.94
2019-05-12T20:26:45.965Z,13.45
2019-05-12T20:29:24.512Z,12.92
2019-05-12T20:32:04.829Z,13.66
2019-05-12T20:34:48.072Z,15.42
2019-05-12T20:37:22.935Z,16.80
2019-05-12T20:40:04.382Z,16.66
2019-05-12T20:42:42.294Z,15.80
2019-05-12T20:45:13.729Z,15.07
2019-05-12T20:47:47.675Z,14.52
2019-05-12T20:50:32.769Z,14.00
2019-05-12T20:53:05.264Z,13.49
2019-05-12T20:55:41.524Z,13.03
2019-05-12T20:58:15.644Z,13.90
2019-05-12T21:00:50.107Z,15.65
2019-05-12T21:03:28.498Z,17.18
2019-05-12T21:06:02.207Z,17.04
2019-05-12T21:08:38.447Z,16.11
2019-05-12T21:11:15.186Z,15.41
2019-05-12T21:13:47.274Z,14.80
2019-05-12T21:16:30.854Z,14.27
2019-05-12T21:19:07.472Z,13.75
2019-05-12T21:21:38.220Z,13.25
2019-05-12T21:24:20.937Z,12.79
2019-05-12T21:27:03.690Z,13.62
2019-05-12T21:29:33.804Z,15.45
2019-05-12T21:32:12.304Z,16.88
2019-05-12T21:34:43.553Z,16.74
2019-05-12T21:37:14.913Z,15.87
2019-05-12T21:39:50.960Z,15.17
2019-05-12T21:42:20.525Z,14.53
2019-05-12T21:44:53.287Z,14.00
2019-05-12T21:47:26.648Z,13.49
2019-05-12T21:49:58.359Z,13.03
2019-05-12T21:52:37.142Z,12.61
2019-05-12T21:55:23.153Z,13.62
2019-05-12T21:58:01.471Z,15.48
2019-05-12T22:03:27.523Z,16.71
2019-05-12T22:06:06.871Z,15.90
2019-05-12T22:08:34.232Z,15.18
2019-05-12T22:11:11.513Z,14.59
2019-05-12T22:13:46.778Z,14.03
2019-05-12T22:16:15.172Z,13.52
2019-05-12T22:18:54.665Z,13.07
2019-05-12T22:21:23.852Z,12.63
2019-05-12T22:23:56.359Z,12.23
2019-05-12T22:26:30.761Z,11.85
2019-05-12T22:29:04.155Z,11.50
2019-05-12T22:31:38.553Z,11.23
2019-05-12T22:34:08.856Z,10.92
2019-05-12T22:36:45.232Z,11.90
2019-05-12T22:39:14.808Z,13.78
2019-05-12T22:41:46.558Z,15.27
2019-05-12T22:44:22.014Z,15.37
2019-05-12T22:46:54.093Z,14.65
2019-05-12T22:49:25.852Z,13.98
2019-05-12T22:52:02.692Z,13.48
2019-05-12T22:54:33.669Z,13.02
2019-05-12T22:57:06.686Z,12.62
2019-05-12T22:59:40.347Z,12.23
2019-05-12T23:02:16.037Z,11.86
2019-05-12T23:04:45.273Z,11.53
2019-05-12T23:07:19.093Z,11.23
2019-05-12T23:09:50.338Z,10.92
2019-05-12T23:12:23.666Z,10.64
2019-05-12T23:15:03.049Z,10.38
2019-05-12T23:17:29.680Z,10.16
2019-05-12T23:20:01.374Z,9.95
2019-05-12T23:22:35.099Z,11.03
2019-05-12T23:25:11.381Z,13.02
2019-05-12T23:27:44.229Z,14.65
2019-05-12T23:30:16.357Z,14.76
2019-05-12T23:32:51.463Z,14.06
2019-05-12T23:35:21.724Z,13.46
2019-05-12T23:37:53.714Z,12.99
2019-05-12T23:40:25.569Z,12.55
2019-05-12T23:42:57.321Z,12.15
2019-05-12T23:45:29.049Z,11.79
2019-05-12T23:48:03.458Z,11.43
2019-05-12T23:50:34.417Z,11.09
2019-05-12T23:53:06.256Z,10.81
2019-05-12T23:55:37.980Z,10.52
2019-05-12T23:58:09.731Z,10.24
